39.8°F
Current conditions from King Hill
Updated every 5 minutes
 
  Saturday October 25, 2014

Station Historical Data
Daily Summary for August 15, 2012 Units:  Metric    English   Both
« Previous Day
Next Day »
Daily Weekly Monthly Yearly Custom
  High: Low: Average:
Temperature: 26.3 °C 16.4 °C 20.4 °C
Dew Point: 19.8 °C 14.9 °C 17.1 °C
Humidity: 93% 58% 82%
Wind Speed: 8km/h 0km/h 3.4km/h
Wind Gust: 14.5km/h - -
Wind- - West
Pressure: 1011.1 hPa 1008.4 hPa -
Precipitation: 0 mm    
Historical Graphs
 
 
Tabular Data for August 15, 2012
Time Temperature Dew Point Pressure Wind Wind Speed Wind Gust Humidity Daily Rainfall
00:04 16.9 °C 15.1 °C 1010 hPa Calm     89% 0 mm
00:09 16.9 °C 14.9 °C 1010 hPa Calm     88% 0 mm
00:14 16.9 °C 15.1 °C 1010 hPa Calm     89% 0 mm
00:19 16.8 °C 15 °C 1010 hPa Calm     89% 0 mm
00:24 16.9 °C 15.1 °C 1009.7 hPa Calm   1.6 km/h 89% 0 mm
00:29 17 °C 15.2 °C 1010 hPa Calm   1.6 km/h 89% 0 mm
00:34 17.1 °C 15.1 °C 1010 hPa Calm   1.6 km/h 88% 0 mm
00:39 17.3 °C 15.2 °C 1009.7 hPa Calm   6.4 km/h 87% 0 mm
00:44 17.6 °C 15.4 °C 1009.7 hPa Calm   6.4 km/h 87% 0 mm
00:49 17.7 °C 15.3 °C 1009.7 hPa Calm     86% 0 mm
00:54 17.8 °C 15.2 °C 1009.7 hPa Calm     85% 0 mm
00:59 17.8 °C 15.3 °C 1009.7 hPa Calm   1.6 km/h 85% 0 mm
01:04 17.8 °C 15.3 °C 1009.7 hPa Calm   1.6 km/h 85% 0 mm
01:09 17.8 °C 15.4 °C 1009.7 hPa Calm     86% 0 mm
01:14 17.8 °C 15.3 °C 1009.7 hPa Calm     85% 0 mm
01:19 17.8 °C 15.2 °C 1009.4 hPa Calm   1.6 km/h 85% 0 mm
01:24 17.7 °C 15.2 °C 1009.4 hPa Calm   1.6 km/h 85% 0 mm
01:29 17.7 °C 15.2 °C 1009.4 hPa Calm     85% 0 mm
01:34 17.7 °C 15.1 °C 1009.4 hPa Calm     85% 0 mm
01:39 17.7 °C 15.1 °C 1009.4 hPa Calm     85% 0 mm
01:44 17.6 °C 15.1 °C 1009.4 hPa Calm     85% 0 mm
01:49 17.6 °C 15.2 °C 1009.4 hPa Calm     86% 0 mm
01:54 17.4 °C 15.1 °C 1009.4 hPa Calm     86% 0 mm
01:59 17.4 °C 15 °C 1009.4 hPa Calm     86% 0 mm
02:04 17.4 °C 15 °C 1009 hPa Calm     86% 0 mm
02:09 17.4 °C 15.1 °C 1009 hPa Calm     86% 0 mm
02:14 17.5 °C 15.3 °C 1009 hPa Calm     87% 0 mm
02:19 17.6 °C 15.4 °C 1009 hPa Calm     87% 0 mm
02:24 17.6 °C 15.4 °C 1009 hPa Calm     87% 0 mm
02:29 17.7 °C 15.7 °C 1009 hPa Calm     88% 0 mm
02:34 17.7 °C 15.7 °C 1009 hPa Calm     88% 0 mm
02:39 17.7 °C 15.7 °C 1009.4 hPa Calm   3.2 km/h 88% 0 mm
02:44 17.6 °C 15.6 °C 1009.4 hPa Calm   4.8 km/h 88% 0 mm
02:49 17.6 °C 15.6 °C 1009.4 hPa SSW 1.6 km/h 8 km/h 88% 0 mm
02:54 17.7 °C 15.6 °C 1009.4 hPa Calm   9.7 km/h 87% 0 mm
02:59 17.9 °C 15.7 °C 1009.4 hPa Calm   9.7 km/h 87% 0 mm
03:04 17.9 °C 15.6 °C 1009.4 hPa Calm   6.4 km/h 86% 0 mm
03:09 17.9 °C 15.6 °C 1009 hPa Calm   1.6 km/h 86% 0 mm
03:14 18 °C 15.8 °C 1009 hPa Calm   1.6 km/h 87% 0 mm
03:19 18 °C 15.8 °C 1008.7 hPa Calm   1.6 km/h 87% 0 mm
03:24 18 °C 15.8 °C 1008.7 hPa Calm   4.8 km/h 87% 0 mm
03:29 18 °C 15.8 °C 1008.7 hPa Calm   6.4 km/h 87% 0 mm
03:34 18.1 °C 15.8 °C 1009 hPa SSW 1.6 km/h 8 km/h 87% 0 mm
03:39 18.1 °C 15.8 °C 1008.7 hPa Calm   8 km/h 87% 0 mm
03:44 18.1 °C 15.8 °C 1008.7 hPa Calm   8 km/h 87% 0 mm
03:49 18 °C 15.8 °C 1008.7 hPa Calm   4.8 km/h 87% 0 mm
03:54 17.9 °C 15.9 °C 1008.7 hPa Calm     88% 0 mm
03:59 17.9 °C 15.9 °C 1008.7 hPa Calm     88% 0 mm
04:04 17.8 °C 15.8 °C 1008.7 hPa Calm     88% 0 mm
04:09 17.8 °C 15.8 °C 1009 hPa Calm     88% 0 mm
04:14 17.7 °C 15.7 °C 1008.7 hPa Calm   1.6 km/h 88% 0 mm
04:19 17.7 °C 15.8 °C 1009 hPa Calm   1.6 km/h 89% 0 mm
04:24 17.7 °C 15.8 °C 1008.7 hPa Calm     89% 0 mm
04:29 17.6 °C 15.8 °C 1008.7 hPa Calm     89% 0 mm
04:34 17.6 °C 15.7 °C 1008.7 hPa Calm     89% 0 mm
04:39 17.5 °C 15.7 °C 1008.7 hPa Calm     89% 0 mm
04:44 17.4 °C 15.8 °C 1008.7 hPa Calm     90% 0 mm
04:49 17.4 °C 15.7 °C 1008.4 hPa Calm     90% 0 mm
04:54 17.3 °C 15.7 °C 1008.4 hPa Calm     90% 0 mm
04:59 17.3 °C 15.6 °C 1008.4 hPa Calm     90% 0 mm
05:04 17.2 °C 15.6 °C 1008.4 hPa Calm   1.6 km/h 90% 0 mm
05:09 17.2 °C 15.7 °C 1008.7 hPa Calm   1.6 km/h 91% 0 mm
05:14 17.2 °C 15.7 °C 1008.4 hPa Calm     91% 0 mm
05:19 17.2 °C 15.7 °C 1008.7 hPa Calm     91% 0 mm
05:24 17.1 °C 15.6 °C 1008.7 hPa Calm     91% 0 mm
05:29 17 °C 15.5 °C 1008.7 hPa Calm     91% 0 mm
05:34 17 °C 15.5 °C 1009 hPa Calm     91% 0 mm
05:39 17 °C 15.5 °C 1009 hPa Calm     91% 0 mm
05:44 17 °C 15.7 °C 1008.7 hPa Calm     92% 0 mm
05:49 17 °C 15.7 °C 1009 hPa Calm     92% 0 mm
05:54 17 °C 15.7 °C 1009 hPa Calm     92% 0 mm
05:59 17.1 °C 15.7 °C 1009 hPa Calm   1.6 km/h 92% 0 mm
06:04 17.1 °C 15.8 °C 1009 hPa Calm   1.6 km/h 92% 0 mm
06:09 17.2 °C 15.8 °C 1009 hPa Calm     92% 0 mm
06:14 17.3 °C 16.1 °C 1009 hPa SSW 1.6 km/h 6.4 km/h 93% 0 mm
06:19 17.4 °C 16.2 °C 1009 hPa SSW 1.6 km/h 6.4 km/h 93% 0 mm
06:24 17.4 °C 16.3 °C 1009 hPa Calm   4.8 km/h 93% 0 mm
06:29 17.6 °C 16.4 °C 1009 hPa Calm     93% 0 mm
06:34 17.6 °C 16.4 °C 1009.4 hPa Calm   4.8 km/h 93% 0 mm
06:39 17.7 °C 16.5 °C 1009.4 hPa Calm   4.8 km/h 93% 0 mm
06:44 17.7 °C 16.6 °C 1009.4 hPa Calm   3.2 km/h 93% 0 mm
06:49 17.8 °C 16.6 °C 1009.4 hPa Calm     93% 0 mm
06:54 17.8 °C 16.5 °C 1009.4 hPa Calm     92% 0 mm
06:59 17.8 °C 16.5 °C 1009.4 hPa Calm     92% 0 mm
07:04 17.9 °C 16.6 °C 1009.4 hPa Calm   1.6 km/h 92% 0 mm
07:09 17.9 °C 16.6 °C 1009.4 hPa Calm   3.2 km/h 92% 0 mm
07:14 17.9 °C 16.6 °C 1009.4 hPa Calm   4.8 km/h 92% 0 mm
07:19 18 °C 16.7 °C 1009.7 hPa Calm   4.8 km/h 92% 0 mm
07:24 18.1 °C 16.7 °C 1009.7 hPa WSW 1.6 km/h 6.4 km/h 92% 0 mm
07:29 18.1 °C 16.8 °C 1009.7 hPa Calm   6.4 km/h 92% 0 mm
07:34 18.2 °C 16.9 °C 1010 hPa Calm   6.4 km/h 92% 0 mm
07:39 18.3 °C 17 °C 1010 hPa Calm   4.8 km/h 92% 0 mm
07:44 18.5 °C 17.2 °C 1010 hPa SW 1.6 km/h 4.8 km/h 92% 0 mm
07:49 18.6 °C 17.1 °C 1010 hPa Calm   6.4 km/h 91% 0 mm
07:54 18.7 °C 17.2 °C 1009.7 hPa Calm   6.4 km/h 91% 0 mm
07:59 18.8 °C 17.3 °C 1009.7 hPa Calm   9.7 km/h 91% 0 mm
08:04 19.2 °C 17.5 °C 1009.7 hPa SW 6.4 km/h 11.3 km/h 90% 0 mm
08:09 19.6 °C 17.5 °C 1009.7 hPa SW 3.2 km/h 11.3 km/h 88% 0 mm
08:14 19.9 °C 17.7 °C 1009.7 hPa SSW 4.8 km/h 11.3 km/h 87% 0 mm
08:19 20.3 °C 17.9 °C 1009.7 hPa West 1.6 km/h 11.3 km/h 86% 0 mm
08:24 20.6 °C 18.3 °C 1009.7 hPa Calm   9.7 km/h 87% 0 mm
08:29 20.7 °C 18.1 °C 1009.7 hPa SW 3.2 km/h 11.3 km/h 85% 0 mm
08:34 20.6 °C 17.8 °C 1009.7 hPa Calm   12.9 km/h 84% 0 mm
08:39 20.5 °C 17.7 °C 1009.7 hPa SSW 3.2 km/h 12.9 km/h 84% 0 mm
08:44 20.6 °C 18 °C 1009.7 hPa Calm   9.7 km/h 85% 0 mm
08:49 20.8 °C 18.2 °C 1009.7 hPa Calm   8 km/h 85% 0 mm
08:54 20.7 °C 17.9 °C 1009.7 hPa Calm   9.7 km/h 84% 0 mm
08:59 20.7 °C 18.1 °C 1009.7 hPa WSW 1.6 km/h 9.7 km/h 85% 0 mm
09:04 20.6 °C 18 °C 1010 hPa WNW 3.2 km/h 11.3 km/h 85% 0 mm
09:09 20.6 °C 17.8 °C 1010 hPa West 1.6 km/h 11.3 km/h 84% 0 mm
09:14 20.8 °C 18 °C 1009.7 hPa West 1.6 km/h 11.3 km/h 84% 0 mm
09:19 20.9 °C 18.2 °C 1010 hPa WSW 4.8 km/h 11.3 km/h 84% 0 mm
09:24 21.5 °C 18.5 °C 1010 hPa SW 4.8 km/h 11.3 km/h 83% 0 mm
09:29 21.7 °C 18.1 °C 1010 hPa WNW 1.6 km/h 11.3 km/h 80% 0 mm
09:34 21.4 °C 18.1 °C 1010 hPa SSW 1.6 km/h 11.3 km/h 81% 0 mm
09:39 21.2 °C 18 °C 1010 hPa WSW 4.8 km/h 9.7 km/h 82% 0 mm
09:44 21.1 °C 18.1 °C 1010 hPa NNW 1.6 km/h 9.7 km/h 83% 0 mm
09:49 21 °C 18 °C 1010 hPa WSW 4.8 km/h 9.7 km/h 83% 0 mm
09:54 20.9 °C 17.9 °C 1010 hPa West 4.8 km/h 12.9 km/h 83% 0 mm
09:59 21 °C 18 °C 1010 hPa West 6.4 km/h 14.5 km/h 83% 0 mm
10:04 20.9 °C 17.9 °C 1010 hPa West 3.2 km/h 14.5 km/h 83% 0 mm
10:09 20.9 °C 17.9 °C 1010 hPa WSW 1.6 km/h 14.5 km/h 83% 0 mm
10:14 21 °C 18 °C 1010 hPa NW 1.6 km/h 11.3 km/h 83% 0 mm
10:19 21.2 °C 18 °C 1010 hPa WNW 4.8 km/h 11.3 km/h 82% 0 mm
10:24 21.4 °C 18.4 °C 1010 hPa West 4.8 km/h 11.3 km/h 83% 0 mm
10:29 21.5 °C 17.9 °C 1010 hPa WSW 4.8 km/h 12.9 km/h 80% 0 mm
10:34 21.5 °C 18.1 °C 1010 hPa WNW 4.8 km/h 12.9 km/h 81% 0 mm
10:39 21.4 °C 17.8 °C 1010.4 hPa WNW 8 km/h 14.5 km/h 80% 0 mm
10:44 21.8 °C 18.8 °C 1010 hPa West 3.2 km/h 14.5 km/h 83% 0 mm
10:49 22.3 °C 18.3 °C 1010 hPa West 3.2 km/h 12.9 km/h 78% 0 mm
10:54 22.3 °C 18.3 °C 1010 hPa West 6.4 km/h 12.9 km/h 78% 0 mm
10:59 22.4 °C 18.4 °C 1010 hPa WSW 3.2 km/h 11.3 km/h 78% 0 mm
11:04 22.2 °C 18.4 °C 1010.4 hPa NW 4.8 km/h 11.3 km/h 79% 0 mm
11:09 21.8 °C 18.2 °C 1010.4 hPa WNW 4.8 km/h 12.9 km/h 80% 0 mm
11:14 21.6 °C 18 °C 1010.4 hPa WNW 4.8 km/h 12.9 km/h 80% 0 mm
11:19 21.4 °C 17.8 °C 1010.4 hPa NW 4.8 km/h 11.3 km/h 80% 0 mm
11:24 21.3 °C 17.9 °C 1010.4 hPa Calm   11.3 km/h 81% 0 mm
11:29 21.4 °C 18.2 °C 1010.4 hPa NW 6.4 km/h 11.3 km/h 82% 0 mm
11:34 21.8 °C 18.4 °C 1010.4 hPa Calm   11.3 km/h 81% 0 mm
11:39 22.2 °C 18.6 °C 1010.4 hPa NW 1.6 km/h 9.7 km/h 80% 0 mm
11:44 22.3 °C 18.4 °C 1010.4 hPa NW 3.2 km/h 8 km/h 79% 0 mm
11:49 22.1 °C 18.3 °C 1010.4 hPa WNW 1.6 km/h 8 km/h 79% 0 mm
11:54 22.2 °C 18.3 °C 1010.4 hPa Calm   6.4 km/h 79% 0 mm
11:59 22.2 °C 18.2 °C 1010.4 hPa WNW 1.6 km/h 4.8 km/h 78% 0 mm
12:04 22.2 °C 18.2 °C 1010.4 hPa Calm   6.4 km/h 78% 0 mm
12:09 22.3 °C 18.3 °C 1010.4 hPa Calm   8 km/h 78% 0 mm
12:14 22.6 °C 18.7 °C 1010.4 hPa WNW 1.6 km/h 8 km/h 79% 0 mm
12:19 22.9 °C 19.3 °C 1010.4 hPa West 6.4 km/h 9.7 km/h 80% 0 mm
12:24 23.4 °C 19 °C 1010.4 hPa WNW 1.6 km/h 9.7 km/h 76% 0 mm
12:29 23.7 °C 18.2 °C 1010.4 hPa West 4.8 km/h 9.7 km/h 71% 0 mm
12:34 24.1 °C 18.8 °C 1010.4 hPa Calm   9.7 km/h 72% 0 mm
12:39 24.6 °C 18.5 °C 1010.4 hPa Calm   4.8 km/h 69% 0 mm
12:44 24.6 °C 18.9 °C 1010.4 hPa Calm   4.8 km/h 71% 0 mm
12:49 24.6 °C 18.9 °C 1010.4 hPa Calm   1.6 km/h 71% 0 mm
12:54 24.4 °C 18.8 °C 1010.4 hPa Calm     71% 0 mm
12:59 24.3 °C 18.4 °C 1010 hPa Calm   1.6 km/h 70% 0 mm
13:04 24.3 °C 19.2 °C 1010 hPa Calm   3.2 km/h 73% 0 mm
13:09 24.8 °C 18.2 °C 1010.4 hPa WSW 3.2 km/h 9.7 km/h 67% 0 mm
13:14 25.1 °C 18.3 °C 1010 hPa West 3.2 km/h 11.3 km/h 66% 0 mm
13:19 25.2 °C 18.9 °C 1010.4 hPa NW 4.8 km/h 14.5 km/h 68% 0 mm
13:24 24.4 °C 17.9 °C 1010.4 hPa NW 4.8 km/h 14.5 km/h 67% 0 mm
13:29 23.9 °C 18.8 °C 1010.4 hPa NW 3.2 km/h 12.9 km/h 73% 0 mm
13:34 23.7 °C 18.8 °C 1010.4 hPa Calm   11.3 km/h 74% 0 mm
13:39 23.8 °C 19.3 °C 1010.4 hPa NW 1.6 km/h 8 km/h 76% 0 mm
13:44 24.6 °C 19.8 °C 1010.4 hPa Calm   8 km/h 75% 0 mm
13:49 25.2 °C 19.6 °C 1010.4 hPa NW 1.6 km/h 9.7 km/h 71% 0 mm
13:54 24.9 °C 18.4 °C 1010.4 hPa WNW 1.6 km/h 11.3 km/h 67% 0 mm
13:59 24.3 °C 18.7 °C 1010.4 hPa NW 1.6 km/h 11.3 km/h 71% 0 mm
14:04 23.9 °C 19 °C 1010.4 hPa Calm   11.3 km/h 74% 0 mm
14:09 24.1 °C 19.6 °C 1010.4 hPa Calm   8 km/h 76% 0 mm
14:14 24.7 °C 19.3 °C 1010.4 hPa Calm   11.3 km/h 72% 0 mm
14:19 25.2 °C 19.4 °C 1010 hPa NW 1.6 km/h 11.3 km/h 70% 0 mm
14:24 25.6 °C 19.4 °C 1010.4 hPa NW 3.2 km/h 11.3 km/h 69% 0 mm
14:29 25.5 °C 18.4 °C 1010.4 hPa WNW 4.8 km/h 11.3 km/h 65% 0 mm
14:34 24.8 °C 17.5 °C 1010.4 hPa NW 1.6 km/h 9.7 km/h 64% 0 mm
14:39 24.3 °C 18.4 °C 1010.4 hPa Calm   9.7 km/h 70% 0 mm
14:44 24.4 °C 18.3 °C 1010.4 hPa WNW 6.4 km/h 9.7 km/h 69% 0 mm
14:49 24.9 °C 18.3 °C 1010.4 hPa West 6.4 km/h 12.9 km/h 67% 0 mm
14:54 25.3 °C 18 °C 1010.4 hPa Calm   12.9 km/h 64% 0 mm
14:59 25.5 °C 17.4 °C 1010 hPa West 4.8 km/h 9.7 km/h 61% 0 mm
15:04 25.7 °C 16.8 °C 1010 hPa Calm   9.7 km/h 58% 0 mm
15:09 25.9 °C 17.8 °C 1010 hPa Calm   4.8 km/h 61% 0 mm
15:14 26.1 °C 18.3 °C 1010 hPa NE 1.6 km/h 6.4 km/h 62% 0 mm
15:19 26.2 °C 17.8 °C 1010 hPa Calm   11.3 km/h 60% 0 mm
15:24 26.2 °C 18.1 °C 1010 hPa Calm   11.3 km/h 61% 0 mm
15:29 26.1 °C 18.2 °C 1010 hPa NW 1.6 km/h 9.7 km/h 62% 0 mm
15:34 26.1 °C 18.3 °C 1010 hPa WNW 1.6 km/h 9.7 km/h 62% 0 mm
15:39 26.2 °C 19.3 °C 1010 hPa Calm   8 km/h 66% 0 mm
15:44 26.3 °C 18.2 °C 1010 hPa WNW 1.6 km/h 8 km/h 61% 0 mm
15:49 26.1 °C 17.4 °C 1010 hPa Calm   8 km/h 59% 0 mm
15:54 25.7 °C 18.4 °C 1010 hPa NW 1.6 km/h 9.7 km/h 64% 0 mm
15:59 25.7 °C 17.9 °C 1009.7 hPa Calm   9.7 km/h 62% 0 mm
16:04 25.6 °C 18.5 °C 1009.7 hPa Calm   6.4 km/h 65% 0 mm
16:09 25.6 °C 18.5 °C 1009.7 hPa NW 4.8 km/h 11.3 km/h 65% 0 mm
16:14 25.6 °C 17.8 °C 1009.7 hPa Calm   11.3 km/h 62% 0 mm
16:19 25.8 °C 18.2 °C 1009.7 hPa NW 1.6 km/h 11.3 km/h 63% 0 mm
16:24 25.6 °C 18.3 °C 1010 hPa Calm   8 km/h 64% 0 mm
16:29 25.3 °C 18.2 °C 1010 hPa NW 1.6 km/h 6.4 km/h 65% 0 mm
16:34 24.8 °C 18.3 °C 1010 hPa NW 1.6 km/h 6.4 km/h 67% 0 mm
16:39 24.5 °C 18.2 °C 1010 hPa Calm   6.4 km/h 68% 0 mm
16:44 24.3 °C 17.3 °C 1010 hPa NW 3.2 km/h 6.4 km/h 65% 0 mm
16:49 24.4 °C 18.1 °C 1009.7 hPa Calm   6.4 km/h 68% 0 mm
16:54 24.9 °C 18.6 °C 1009.7 hPa Calm   1.6 km/h 68% 0 mm
16:59 25.4 °C 18.4 °C 1009.7 hPa NW 3.2 km/h 8 km/h 65% 0 mm
17:04 25.3 °C 18.2 °C 1009.7 hPa Calm   8 km/h 65% 0 mm
17:09 25.3 °C 17.7 °C 1010 hPa Calm   3.2 km/h 63% 0 mm
17:14 25.6 °C 18.5 °C 1009.7 hPa NW 3.2 km/h 6.4 km/h 65% 0 mm
17:19 25.8 °C 17.7 °C 1009.7 hPa NW 4.8 km/h 9.7 km/h 61% 0 mm
17:24 25.7 °C 17.8 °C 1009.7 hPa NW 4.8 km/h 9.7 km/h 62% 0 mm
17:29 25.3 °C 18.5 °C 1009.7 hPa NNW 3.2 km/h 8 km/h 66% 0 mm
17:34 24.8 °C 18.5 °C 1009.7 hPa Calm   8 km/h 68% 0 mm
17:39 24.5 °C 18 °C 1009.7 hPa Calm   6.4 km/h 67% 0 mm
17:44 24.4 °C 17.9 °C 1009.7 hPa Calm   1.6 km/h 67% 0 mm
17:49 24.2 °C 18.6 °C 1009.7 hPa Calm     71% 0 mm
17:54 23.9 °C 18.2 °C 1009.7 hPa Calm   6.4 km/h 70% 0 mm
17:59 23.8 °C 18.4 °C 1009.7 hPa Calm   6.4 km/h 72% 0 mm
18:04 23.6 °C 17.8 °C 1009.7 hPa WNW 3.2 km/h 4.8 km/h 70% 0 mm
18:09 23.5 °C 18.2 °C 1009.7 hPa Calm   4.8 km/h 72% 0 mm
18:14 23.4 °C 18.1 °C 1010 hPa Calm   8 km/h 72% 0 mm
18:25 23.2 °C 18.1 °C 1010 hPa Calm     73% 0 mm
18:30 23.3 °C 17.9 °C 1010 hPa Calm     72% 0 mm
18:35 23.4 °C 18.7 °C 1009.7 hPa Calm     75% 0 mm
18:40 23.4 °C 19.2 °C 1009.7 hPa Calm     77% 0 mm
18:45 23.4 °C 18.1 °C 1010 hPa Calm     72% 0 mm
18:50 23.3 °C 17.7 °C 1010 hPa Calm     71% 0 mm
18:54 23.3 °C 18.4 °C 1010 hPa Calm     74% 0 mm
18:59 23.3 °C 18.7 °C 1009.7 hPa Calm     75% 0 mm
19:05 23.3 °C 18.6 °C 1009.7 hPa Calm     75% 0 mm
19:15 22.8 °C 18.6 °C 1010 hPa Calm     77% 0 mm
19:19 22.5 °C 18.3 °C 1010 hPa Calm     77% 0 mm
19:25 22.2 °C 18.2 °C 1010 hPa Calm     78% 0 mm
19:30 21.8 °C 17.8 °C 1010 hPa Calm     78% 0 mm
19:34 21.4 °C 17.6 °C 1010 hPa Calm     79% 0 mm
19:40 21.1 °C 17.7 °C 1010 hPa Calm     81% 0 mm
19:45 20.7 °C 17.3 °C 1009.7 hPa Calm     81% 0 mm
19:50 20.4 °C 17.2 °C 1009.7 hPa Calm     82% 0 mm
19:54 20.1 °C 16.9 °C 1010 hPa Calm     82% 0 mm
19:59 19.8 °C 16.8 °C 1010 hPa Calm     83% 0 mm
20:05 19.5 °C 16.7 °C 1010 hPa Calm     84% 0 mm
20:10 19.2 °C 16.4 °C 1010 hPa Calm     84% 0 mm
20:15 18.9 °C 16.4 °C 1010 hPa Calm     85% 0 mm
20:19 18.7 °C 16.3 °C 1010 hPa Calm     86% 0 mm
20:25 18.4 °C 16.1 °C 1010 hPa Calm     86% 0 mm
20:30 18.2 °C 16 °C 1010 hPa Calm     87% 0 mm
20:35 18.1 °C 16.1 °C 1010 hPa Calm     88% 0 mm
20:45 18 °C 16.2 °C 1010.4 hPa Calm     89% 0 mm
20:50 18.2 °C 16.5 °C 1010.4 hPa Calm     90% 0 mm
20:54 18.2 °C 16.6 °C 1010.4 hPa Calm     90% 0 mm
20:59 18.1 °C 16.4 °C 1010.4 hPa Calm     90% 0 mm
21:05 18.1 °C 16.4 °C 1010.4 hPa Calm     90% 0 mm
21:10 18.1 °C 16.4 °C 1010.4 hPa Calm     90% 0 mm
21:15 18.1 °C 16.4 °C 1010.4 hPa Calm     90% 0 mm
21:19 18.1 °C 16.6 °C 1010.4 hPa Calm     91% 0 mm
21:25 18 °C 16.5 °C 1010.7 hPa Calm     91% 0 mm
21:30 18.1 °C 16.6 °C 1010.4 hPa Calm     91% 0 mm
21:34 18 °C 16.5 °C 1010.4 hPa Calm     91% 0 mm
21:39 17.9 °C 16.4 °C 1010.7 hPa Calm     91% 0 mm
21:45 17.8 °C 16.3 °C 1010.7 hPa Calm     91% 0 mm
21:50 17.8 °C 16.3 °C 1010.7 hPa Calm     91% 0 mm
21:55 17.7 °C 16.2 °C 1010.7 hPa Calm     91% 0 mm
22:00 17.6 °C 16.1 °C 1010.7 hPa Calm     91% 0 mm
22:05 17.5 °C 16 °C 1010.7 hPa Calm     91% 0 mm
22:10 17.4 °C 15.9 °C 1010.7 hPa Calm     91% 0 mm
22:14 17.4 °C 16.1 °C 1010.7 hPa Calm     92% 0 mm
22:19 17.4 °C 16.1 °C 1010.7 hPa Calm     92% 0 mm
22:25 17.4 °C 16.1 °C 1010.7 hPa Calm     92% 0 mm
22:30 17.5 °C 16.2 °C 1010.7 hPa Calm     92% 0 mm
22:34 17.4 °C 16.1 °C 1010.7 hPa Calm     92% 0 mm
22:39 17.4 °C 16.1 °C 1010.7 hPa Calm     92% 0 mm
22:45 17.3 °C 16 °C 1010.7 hPa Calm     92% 0 mm
22:50 17.2 °C 15.9 °C 1010.7 hPa Calm     92% 0 mm
22:54 17.1 °C 15.8 °C 1010.7 hPa Calm     92% 0 mm
22:59 17.1 °C 15.7 °C 1010.7 hPa Calm     92% 0 mm
23:05 16.9 °C 15.6 °C 1010.7 hPa Calm     92% 0 mm
23:10 16.8 °C 15.5 °C 1010.7 hPa Calm     92% 0 mm
23:14 16.8 °C 15.4 °C 1011.1 hPa Calm     92% 0 mm
23:19 16.7 °C 15.4 °C 1011.1 hPa Calm     92% 0 mm
23:25 16.7 °C 15.4 °C 1010.7 hPa Calm     92% 0 mm
23:30 16.7 °C 15.4 °C 1010.7 hPa Calm     92% 0 mm
23:34 16.6 °C 15.5 °C 1010.7 hPa Calm     93% 0 mm
23:40 16.6 °C 15.5 °C 1011.1 hPa Calm     93% 0 mm
23:45 16.6 °C 15.4 °C 1011.1 hPa Calm     93% 0 mm
23:50 16.5 °C 15.4 °C 1010.7 hPa Calm     93% 0 mm
23:54 16.5 °C 15.4 °C 1010.7 hPa Calm     93% 0 mm
23:59 16.4 °C 15.3 °C 1011.1 hPa Calm     93% 0 mm
Westford Weather
Compliments of Weather Underground

 
 
Current Radar Loop:

Copyright © WestfordWeather.net 2007-2014. All rights reserved.